Terminal Aerodrome Forecast
Issued by NWS

Home | Current Version | Previous Version | Text Only | Print | Product List | Glossary On
Versions: 1 2 3 4 5 6 7 8 9 10 11 12 13 14 15 16 17 18 19 20 21 22 23 24 25 26 27 28 29 30 31 32 33 34 35
000
FTUS43 KDLH 230000 AAA
TAFHYR
TAF AMD
KHYR 230031Z 2301/2324 03006KT P6SM OVC015
      TEMPO 2301/2303 OVC008
     FM230400 00000KT 5SM BR OVC008
     FM230800 00000KT 1 1/2SM BR OVC004
     FM231600 08005KT 6SM BR OVC013
     FM232200 08004KT P6SM OVC020=

USA.gov is the U.S. government's official web portal to all federal, state and local government web resources and services.